sensor_id;sensor_type;location;lat;lon;timestamp;P1;durP1;ratioP1;P2;durP2;ratioP2
17365;SDS011;8800;50.118;9.900;2023-04-24T00:00:48;2.75;;;1.42;;
17365;SDS011;8800;50.118;9.900;2023-04-24T00:03:16;2.80;;;1.58;;
17365;SDS011;8800;50.118;9.900;2023-04-24T00:05:45;2.53;;;1.35;;
17365;SDS011;8800;50.118;9.900;2023-04-24T00:08:12;3.63;;;1.70;;
17365;SDS011;8800;50.118;9.900;2023-04-24T00:10:40;3.75;;;1.65;;
17365;SDS011;8800;50.118;9.900;2023-04-24T00:13:07;2.35;;;1.30;;
17365;SDS011;8800;50.118;9.900;2023-04-24T00:15:33;3.17;;;1.38;;
17365;SDS011;8800;50.118;9.900;2023-04-24T00:17:59;3.70;;;1.40;;
17365;SDS011;8800;50.118;9.900;2023-04-24T00:20:27;3.42;;;1.50;;
17365;SDS011;8800;50.118;9.900;2023-04-24T00:22:54;2.33;;;1.40;;
17365;SDS011;8800;50.118;9.900;2023-04-24T00:25:20;2.95;;;1.88;;
17365;SDS011;8800;50.118;9.900;2023-04-24T00:27:48;3.75;;;2.17;;
17365;SDS011;8800;50.118;9.900;2023-04-24T00:30:15;2.80;;;1.80;;
17365;SDS011;8800;50.118;9.900;2023-04-24T00:32:41;2.63;;;1.35;;
17365;SDS011;8800;50.118;9.900;2023-04-24T00:35:08;4.90;;;1.55;;
17365;SDS011;8800;50.118;9.900;2023-04-24T00:37:35;3.30;;;1.60;;
17365;SDS011;8800;50.118;9.900;2023-04-24T00:40:01;4.38;;;1.63;;
17365;SDS011;8800;50.118;9.900;2023-04-24T00:42:28;6.90;;;1.52;;
17365;SDS011;8800;50.118;9.900;2023-04-24T00:44:56;3.55;;;1.50;;
17365;SDS011;8800;50.118;9.900;2023-04-24T00:47:23;4.93;;;1.70;;
17365;SDS011;8800;50.118;9.900;2023-04-24T00:49:50;3.90;;;1.50;;
17365;SDS011;8800;50.118;9.900;2023-04-24T00:52:16;2.03;;;1.38;;
17365;SDS011;8800;50.118;9.900;2023-04-24T00:54:43;1.50;;;1.30;;
17365;SDS011;8800;50.118;9.900;2023-04-24T00:57:10;3.58;;;1.80;;
17365;SDS011;8800;50.118;9.900;2023-04-24T00:59:36;2.15;;;1.30;;
17365;SDS011;8800;50.118;9.900;2023-04-24T01:02:04;1.73;;;1.20;;
17365;SDS011;8800;50.118;9.900;2023-04-24T01:04:31;2.63;;;1.40;;
17365;SDS011;8800;50.118;9.900;2023-04-24T01:06:57;2.90;;;1.30;;
17365;SDS011;8800;50.118;9.900;2023-04-24T01:09:23;3.33;;;1.40;;
17365;SDS011;8800;50.118;9.900;2023-04-24T01:11:50;2.55;;;1.30;;
17365;SDS011;8800;50.118;9.900;2023-04-24T01:14:17;3.58;;;1.42;;
17365;SDS011;8800;50.118;9.900;2023-04-24T01:16:43;3.00;;;1.20;;
17365;SDS011;8800;50.118;9.900;2023-04-24T01:19:11;1.55;;;1.20;;
17365;SDS011;8800;50.118;9.900;2023-04-24T01:21:38;2.47;;;1.25;;
17365;SDS011;8800;50.118;9.900;2023-04-24T01:24:06;4.18;;;1.50;;
17365;SDS011;8800;50.118;9.900;2023-04-24T01:26:33;4.63;;;1.08;;
17365;SDS011;8800;50.118;9.900;2023-04-24T01:28:59;3.53;;;1.13;;
17365;SDS011;8800;50.118;9.900;2023-04-24T01:31:26;3.47;;;1.40;;
17365;SDS011;8800;50.118;9.900;2023-04-24T01:33:52;2.03;;;1.25;;
17365;SDS011;8800;50.118;9.900;2023-04-24T01:36:19;4.38;;;1.40;;
17365;SDS011;8800;50.118;9.900;2023-04-24T01:38:47;4.03;;;1.23;;
17365;SDS011;8800;50.118;9.900;2023-04-24T01:41:15;1.55;;;1.20;;
17365;SDS011;8800;50.118;9.900;2023-04-24T01:43:41;1.92;;;1.00;;
17365;SDS011;8800;50.118;9.900;2023-04-24T01:46:07;3.53;;;0.93;;
17365;SDS011;8800;50.118;9.900;2023-04-24T01:48:34;2.67;;;1.00;;
17365;SDS011;8800;50.118;9.900;2023-04-24T01:51:01;3.95;;;1.08;;
17365;SDS011;8800;50.118;9.900;2023-04-24T01:53:27;3.90;;;1.00;;
17365;SDS011;8800;50.118;9.900;2023-04-24T01:55:54;2.08;;;1.00;;
17365;SDS011;8800;50.118;9.900;2023-04-24T01:58:22;3.75;;;1.25;;
17365;SDS011;8800;50.118;9.900;2023-04-24T02:00:48;3.30;;;1.17;;
17365;SDS011;8800;50.118;9.900;2023-04-24T02:03:15;1.35;;;1.08;;
17365;SDS011;8800;50.118;9.900;2023-04-24T02:05:43;1.20;;;0.80;;
17365;SDS011;8800;50.118;9.900;2023-04-24T02:08:09;3.90;;;1.13;;
17365;SDS011;8800;50.118;9.900;2023-04-24T02:10:36;2.33;;;0.90;;
17365;SDS011;8800;50.118;9.900;2023-04-24T02:13:02;3.53;;;0.90;;
17365;SDS011;8800;50.118;9.900;2023-04-24T02:15:31;1.67;;;0.90;;
17365;SDS011;8800;50.118;9.900;2023-04-24T02:17:57;2.58;;;1.08;;
17365;SDS011;8800;50.118;9.900;2023-04-24T02:20:23;2.25;;;0.70;;
17365;SDS011;8800;50.118;9.900;2023-04-24T02:22:50;1.60;;;0.90;;
17365;SDS011;8800;50.118;9.900;2023-04-24T02:25:16;0.77;;;0.60;;
17365;SDS011;8800;50.118;9.900;2023-04-24T02:27:43;1.02;;;0.63;;
17365;SDS011;8800;50.118;9.900;2023-04-24T02:30:09;3.33;;;0.80;;
17365;SDS011;8800;50.118;9.900;2023-04-24T02:32:37;1.15;;;0.85;;
17365;SDS011;8800;50.118;9.900;2023-04-24T02:35:04;2.63;;;0.80;;
17365;SDS011;8800;50.118;9.900;2023-04-24T02:37:30;1.23;;;0.70;;
17365;SDS011;8800;50.118;9.900;2023-04-24T02:39:57;2.13;;;0.98;;
17365;SDS011;8800;50.118;9.900;2023-04-24T02:42:23;1.83;;;0.90;;
17365;SDS011;8800;50.118;9.900;2023-04-24T02:44:50;2.05;;;1.00;;
17365;SDS011;8800;50.118;9.900;2023-04-24T02:47:16;3.75;;;0.85;;
17365;SDS011;8800;50.118;9.900;2023-04-24T02:49:44;2.65;;;0.80;;
17365;SDS011;8800;50.118;9.900;2023-04-24T02:52:10;2.00;;;0.80;;
17365;SDS011;8800;50.118;9.900;2023-04-24T02:54:37;2.53;;;1.00;;
17365;SDS011;8800;50.118;9.900;2023-04-24T02:57:03;4.38;;;0.80;;
17365;SDS011;8800;50.118;9.900;2023-04-24T02:59:30;3.83;;;1.13;;
17365;SDS011;8800;50.118;9.900;2023-04-24T03:01:56;2.25;;;0.90;;
17365;SDS011;8800;50.118;9.900;2023-04-24T03:04:23;5.45;;;0.82;;
17365;SDS011;8800;50.118;9.900;2023-04-24T03:06:52;1.50;;;0.90;;
17365;SDS011;8800;50.118;9.900;2023-04-24T03:09:19;1.15;;;0.80;;
17365;SDS011;8800;50.118;9.900;2023-04-24T03:11:46;1.58;;;0.70;;
17365;SDS011;8800;50.118;9.900;2023-04-24T03:14:13;0.82;;;0.68;;
17365;SDS011;8800;50.118;9.900;2023-04-24T03:16:40;1.20;;;0.70;;
17365;SDS011;8800;50.118;9.900;2023-04-24T03:19:06;2.55;;;0.88;;
17365;SDS011;8800;50.118;9.900;2023-04-24T03:21:33;2.10;;;0.90;;
17365;SDS011;8800;50.118;9.900;2023-04-24T03:24:02;2.83;;;0.98;;
17365;SDS011;8800;50.118;9.900;2023-04-24T03:26:28;1.20;;;0.70;;
17365;SDS011;8800;50.118;9.900;2023-04-24T03:28:55;1.70;;;0.70;;
17365;SDS011;8800;50.118;9.900;2023-04-24T03:31:21;1.00;;;0.63;;
17365;SDS011;8800;50.118;9.900;2023-04-24T03:33:47;4.35;;;0.75;;
17365;SDS011;8800;50.118;9.900;2023-04-24T03:36:14;2.42;;;0.70;;
17365;SDS011;8800;50.118;9.900;2023-04-24T03:38:40;2.80;;;0.60;;
17365;SDS011;8800;50.118;9.900;2023-04-24T03:41:08;2.00;;;1.02;;
17365;SDS011;8800;50.118;9.900;2023-04-24T03:43:34;1.67;;;0.90;;
17365;SDS011;8800;50.118;9.900;2023-04-24T03:46:01;2.47;;;0.70;;
17365;SDS011;8800;50.118;9.900;2023-04-24T03:48:28;1.92;;;0.90;;
17365;SDS011;8800;50.118;9.900;2023-04-24T03:50:54;1.65;;;0.80;;
17365;SDS011;8800;50.118;9.900;2023-04-24T03:53:21;4.05;;;0.73;;
17365;SDS011;8800;50.118;9.900;2023-04-24T03:55:47;0.93;;;0.70;;
17365;SDS011;8800;50.118;9.900;2023-04-24T03:58:15;2.58;;;1.00;;
17365;SDS011;8800;50.118;9.900;2023-04-24T04:00:42;3.60;;;0.82;;
17365;SDS011;8800;50.118;9.900;2023-04-24T04:03:09;2.88;;;0.82;;
17365;SDS011;8800;50.118;9.900;2023-04-24T04:05:36;3.28;;;0.82;;
17365;SDS011;8800;50.118;9.900;2023-04-24T04:08:02;0.98;;;0.60;;
17365;SDS011;8800;50.118;9.900;2023-04-24T04:10:28;3.33;;;0.88;;
17365;SDS011;8800;50.118;9.900;2023-04-24T04:12:55;1.70;;;0.82;;
17365;SDS011;8800;50.118;9.900;2023-04-24T04:15:22;1.40;;;0.80;;
17365;SDS011;8800;50.118;9.900;2023-04-24T04:17:49;2.72;;;0.90;;
17365;SDS011;8800;50.118;9.900;2023-04-24T04:20:15;2.58;;;0.80;;
17365;SDS011;8800;50.118;9.900;2023-04-24T04:22:41;3.47;;;1.08;;
17365;SDS011;8800;50.118;9.900;2023-04-24T04:25:08;2.92;;;0.80;;
17365;SDS011;8800;50.118;9.900;2023-04-24T04:27:34;2.47;;;0.90;;
17365;SDS011;8800;50.118;9.900;2023-04-24T04:30:01;1.90;;;1.20;;
17365;SDS011;8800;50.118;9.900;2023-04-24T04:32:31;3.75;;;0.90;;
17365;SDS011;8800;50.118;9.900;2023-04-24T04:34:58;2.83;;;0.93;;
17365;SDS011;8800;50.118;9.900;2023-04-24T04:37:28;1.52;;;0.80;;
17365;SDS011;8800;50.118;9.900;2023-04-24T04:39:54;2.20;;;0.80;;
17365;SDS011;8800;50.118;9.900;2023-04-24T04:42:20;2.13;;;0.80;;
17365;SDS011;8800;50.118;9.900;2023-04-24T04:44:48;2.03;;;0.85;;
17365;SDS011;8800;50.118;9.900;2023-04-24T04:47:15;3.20;;;1.00;;
17365;SDS011;8800;50.118;9.900;2023-04-24T04:49:43;1.70;;;0.90;;
17365;SDS011;8800;50.118;9.900;2023-04-24T04:52:10;1.73;;;0.90;;
17365;SDS011;8800;50.118;9.900;2023-04-24T04:54:36;2.50;;;0.75;;
17365;SDS011;8800;50.118;9.900;2023-04-24T04:57:02;1.13;;;0.80;;
17365;SDS011;8800;50.118;9.900;2023-04-24T04:59:29;3.10;;;0.77;;
17365;SDS011;8800;50.118;9.900;2023-04-24T05:01:55;1.25;;;0.80;;
17365;SDS011;8800;50.118;9.900;2023-04-24T05:04:21;2.45;;;0.93;;
17365;SDS011;8800;50.118;9.900;2023-04-24T05:06:49;2.72;;;0.80;;
17365;SDS011;8800;50.118;9.900;2023-04-24T05:09:17;1.58;;;0.70;;
17365;SDS011;8800;50.118;9.900;2023-04-24T05:11:43;3.38;;;0.82;;
17365;SDS011;8800;50.118;9.900;2023-04-24T05:14:09;1.05;;;0.60;;
17365;SDS011;8800;50.118;9.900;2023-04-24T05:16:37;1.38;;;0.90;;
17365;SDS011;8800;50.118;9.900;2023-04-24T05:19:03;4.03;;;0.75;;
17365;SDS011;8800;50.118;9.900;2023-04-24T05:21:30;2.67;;;0.90;;
17365;SDS011;8800;50.118;9.900;2023-04-24T05:23:58;2.67;;;1.00;;
17365;SDS011;8800;50.118;9.900;2023-04-24T05:26:24;1.98;;;0.77;;
17365;SDS011;8800;50.118;9.900;2023-04-24T05:28:51;3.67;;;0.93;;
17365;SDS011;8800;50.118;9.900;2023-04-24T05:31:17;1.52;;;0.80;;
17365;SDS011;8800;50.118;9.900;2023-04-24T05:33:44;1.33;;;0.65;;
17365;SDS011;8800;50.118;9.900;2023-04-24T05:36:10;1.80;;;0.60;;
17365;SDS011;8800;50.118;9.900;2023-04-24T05:38:36;2.55;;;0.80;;
17365;SDS011;8800;50.118;9.900;2023-04-24T05:41:04;2.88;;;1.20;;
17365;SDS011;8800;50.118;9.900;2023-04-24T05:43:31;1.90;;;0.98;;
17365;SDS011;8800;50.118;9.900;2023-04-24T05:45:57;0.98;;;0.80;;
17365;SDS011;8800;50.118;9.900;2023-04-24T05:48:23;1.30;;;0.85;;
17365;SDS011;8800;50.118;9.900;2023-04-24T05:50:50;0.88;;;0.70;;
17365;SDS011;8800;50.118;9.900;2023-04-24T05:53:17;1.75;;;0.80;;
17365;SDS011;8800;50.118;9.900;2023-04-24T05:55:44;3.03;;;0.98;;
17365;SDS011;8800;50.118;9.900;2023-04-24T05:58:11;1.60;;;0.80;;
17365;SDS011;8800;50.118;9.900;2023-04-24T06:00:38;1.23;;;0.75;;
17365;SDS011;8800;50.118;9.900;2023-04-24T06:03:07;1.75;;;1.10;;
17365;SDS011;8800;50.118;9.900;2023-04-24T06:05:34;1.60;;;0.73;;
17365;SDS011;8800;50.118;9.900;2023-04-24T06:08:01;1.48;;;0.70;;
17365;SDS011;8800;50.118;9.900;2023-04-24T06:10:27;2.15;;;0.80;;
17365;SDS011;8800;50.118;9.900;2023-04-24T06:12:53;1.00;;;0.82;;
17365;SDS011;8800;50.118;9.900;2023-04-24T06:15:26;1.52;;;1.20;;
17365;SDS011;8800;50.118;9.900;2023-04-24T06:17:52;1.48;;;1.02;;
17365;SDS011;8800;50.118;9.900;2023-04-24T06:20:19;1.73;;;1.10;;
17365;SDS011;8800;50.118;9.900;2023-04-24T06:22:45;2.17;;;1.20;;
17365;SDS011;8800;50.118;9.900;2023-04-24T06:25:12;1.73;;;1.02;;
17365;SDS011;8800;50.118;9.900;2023-04-24T06:27:38;2.03;;;0.98;;
17365;SDS011;8800;50.118;9.900;2023-04-24T06:30:06;1.52;;;1.13;;
17365;SDS011;8800;50.118;9.900;2023-04-24T06:32:33;1.10;;;0.95;;
17365;SDS011;8800;50.118;9.900;2023-04-24T06:35:00;1.60;;;1.20;;
17365;SDS011;8800;50.118;9.900;2023-04-24T06:37:26;1.27;;;0.80;;
17365;SDS011;8800;50.118;9.900;2023-04-24T06:39:53;1.95;;;1.20;;
17365;SDS011;8800;50.118;9.900;2023-04-24T06:42:19;1.17;;;1.05;;
17365;SDS011;8800;50.118;9.900;2023-04-24T06:44:47;2.28;;;1.27;;
17365;SDS011;8800;50.118;9.900;2023-04-24T06:47:13;2.33;;;1.35;;
17365;SDS011;8800;50.118;9.900;2023-04-24T06:49:41;1.70;;;1.23;;
17365;SDS011;8800;50.118;9.900;2023-04-24T06:52:08;2.83;;;1.20;;
17365;SDS011;8800;50.118;9.900;2023-04-24T06:54:34;2.60;;;1.10;;
17365;SDS011;8800;50.118;9.900;2023-04-24T06:57:01;1.55;;;1.00;;
17365;SDS011;8800;50.118;9.900;2023-04-24T06:59:28;2.63;;;1.00;;
17365;SDS011;8800;50.118;9.900;2023-04-24T07:01:55;3.80;;;1.85;;
17365;SDS011;8800;50.118;9.900;2023-04-24T07:04:21;3.13;;;1.40;;
17365;SDS011;8800;50.118;9.900;2023-04-24T07:06:51;1.52;;;1.27;;
17365;SDS011;8800;50.118;9.900;2023-04-24T07:09:19;3.53;;;1.50;;
17365;SDS011;8800;50.118;9.900;2023-04-24T07:11:47;1.73;;;1.30;;
17365;SDS011;8800;50.118;9.900;2023-04-24T07:14:13;1.92;;;1.10;;
17365;SDS011;8800;50.118;9.900;2023-04-24T07:16:40;3.17;;;1.40;;
17365;SDS011;8800;50.118;9.900;2023-04-24T07:19:06;2.08;;;1.10;;
17365;SDS011;8800;50.118;9.900;2023-04-24T07:21:33;1.90;;;0.93;;
17365;SDS011;8800;50.118;9.900;2023-04-24T07:24:00;2.25;;;1.40;;
17365;SDS011;8800;50.118;9.900;2023-04-24T07:26:28;2.47;;;1.40;;
17365;SDS011;8800;50.118;9.900;2023-04-24T07:28:54;1.15;;;1.05;;
17365;SDS011;8800;50.118;9.900;2023-04-24T07:31:21;3.53;;;1.05;;
17365;SDS011;8800;50.118;9.900;2023-04-24T07:33:47;1.67;;;1.20;;
17365;SDS011;8800;50.118;9.900;2023-04-24T07:36:14;1.35;;;1.00;;
17365;SDS011;8800;50.118;9.900;2023-04-24T07:38:44;3.78;;;1.20;;
17365;SDS011;8800;50.118;9.900;2023-04-24T07:41:11;2.90;;;1.30;;
17365;SDS011;8800;50.118;9.900;2023-04-24T07:43:38;2.70;;;1.20;;
17365;SDS011;8800;50.118;9.900;2023-04-24T07:46:04;2.15;;;1.20;;
17365;SDS011;8800;50.118;9.900;2023-04-24T07:48:30;4.03;;;1.52;;
17365;SDS011;8800;50.118;9.900;2023-04-24T07:50:57;2.47;;;1.52;;
17365;SDS011;8800;50.118;9.900;2023-04-24T07:53:23;2.50;;;1.25;;
17365;SDS011;8800;50.118;9.900;2023-04-24T07:55:50;3.50;;;1.00;;
17365;SDS011;8800;50.118;9.900;2023-04-24T07:58:17;3.13;;;1.65;;
17365;SDS011;8800;50.118;9.900;2023-04-24T08:00:44;3.08;;;1.40;;
17365;SDS011;8800;50.118;9.900;2023-04-24T08:03:10;1.85;;;1.30;;
17365;SDS011;8800;50.118;9.900;2023-04-24T08:05:37;2.10;;;1.30;;
17365;SDS011;8800;50.118;9.900;2023-04-24T08:08:03;2.92;;;1.42;;
17365;SDS011;8800;50.118;9.900;2023-04-24T08:10:30;2.40;;;1.25;;
17365;SDS011;8800;50.118;9.900;2023-04-24T08:12:56;1.40;;;1.20;;
17365;SDS011;8800;50.118;9.900;2023-04-24T08:15:24;2.28;;;1.30;;
17365;SDS011;8800;50.118;9.900;2023-04-24T08:17:50;1.52;;;1.20;;
17365;SDS011;8800;50.118;9.900;2023-04-24T08:20:17;3.15;;;1.30;;
17365;SDS011;8800;50.118;9.900;2023-04-24T08:22:43;1.85;;;1.20;;
17365;SDS011;8800;50.118;9.900;2023-04-24T08:25:12;4.00;;;1.40;;
17365;SDS011;8800;50.118;9.900;2023-04-24T08:27:38;2.47;;;1.40;;
17365;SDS011;8800;50.118;9.900;2023-04-24T08:30:06;4.93;;;1.30;;
17365;SDS011;8800;50.118;9.900;2023-04-24T08:32:33;1.25;;;1.13;;
17365;SDS011;8800;50.118;9.900;2023-04-24T08:35:00;2.63;;;1.63;;
17365;SDS011;8800;50.118;9.900;2023-04-24T08:37:26;3.03;;;1.40;;
17365;SDS011;8800;50.118;9.900;2023-04-24T08:39:53;1.95;;;1.30;;
17365;SDS011;8800;50.118;9.900;2023-04-24T08:42:20;2.15;;;1.30;;
17365;SDS011;8800;50.118;9.900;2023-04-24T08:44:47;1.65;;;1.40;;
17365;SDS011;8800;50.118;9.900;2023-04-24T08:47:14;2.35;;;1.63;;
17365;SDS011;8800;50.118;9.900;2023-04-24T08:49:42;2.00;;;1.40;;
17365;SDS011;8800;50.118;9.900;2023-04-24T08:52:08;2.13;;;1.50;;
17365;SDS011;8800;50.118;9.900;2023-04-24T08:54:38;2.90;;;1.60;;
17365;SDS011;8800;50.118;9.900;2023-04-24T08:57:05;3.22;;;1.70;;
17365;SDS011;8800;50.118;9.900;2023-04-24T08:59:34;3.47;;;1.38;;
17365;SDS011;8800;50.118;9.900;2023-04-24T09:02:01;3.40;;;1.40;;
17365;SDS011;8800;50.118;9.900;2023-04-24T09:04:29;2.72;;;1.40;;
17365;SDS011;8800;50.118;9.900;2023-04-24T09:06:57;4.40;;;1.40;;
17365;SDS011;8800;50.118;9.900;2023-04-24T09:09:24;1.60;;;1.35;;
17365;SDS011;8800;50.118;9.900;2023-04-24T09:11:51;1.45;;;1.17;;
17365;SDS011;8800;50.118;9.900;2023-04-24T09:14:20;5.40;;;1.40;;
17365;SDS011;8800;50.118;9.900;2023-04-24T09:16:48;2.30;;;1.42;;
17365;SDS011;8800;50.118;9.900;2023-04-24T09:19:14;2.97;;;1.42;;
17365;SDS011;8800;50.118;9.900;2023-04-24T09:21:40;1.63;;;1.30;;
17365;SDS011;8800;50.118;9.900;2023-04-24T09:24:14;3.35;;;1.40;;
17365;SDS011;8800;50.118;9.900;2023-04-24T09:26:42;3.08;;;1.60;;
17365;SDS011;8800;50.118;9.900;2023-04-24T09:29:13;2.60;;;1.50;;
17365;SDS011;8800;50.118;9.900;2023-04-24T09:31:40;2.53;;;1.40;;
17365;SDS011;8800;50.118;9.900;2023-04-24T09:34:07;1.88;;;1.40;;
17365;SDS011;8800;50.118;9.900;2023-04-24T09:36:34;2.35;;;1.60;;
17365;SDS011;8800;50.118;9.900;2023-04-24T09:39:02;2.22;;;1.60;;
17365;SDS011;8800;50.118;9.900;2023-04-24T09:41:31;2.70;;;1.50;;
17365;SDS011;8800;50.118;9.900;2023-04-24T09:44:10;2.72;;;1.80;;
17365;SDS011;8800;50.118;9.900;2023-04-24T09:46:36;2.50;;;1.45;;
17365;SDS011;8800;50.118;9.900;2023-04-24T09:49:07;3.33;;;1.90;;
17365;SDS011;8800;50.118;9.900;2023-04-24T09:51:34;2.47;;;1.08;;
17365;SDS011;8800;50.118;9.900;2023-04-24T09:54:01;3.60;;;1.30;;
17365;SDS011;8800;50.118;9.900;2023-04-24T09:56:29;2.88;;;1.55;;
17365;SDS011;8800;50.118;9.900;2023-04-24T09:59:05;3.50;;;1.77;;
17365;SDS011;8800;50.118;9.900;2023-04-24T10:01:32;2.75;;;1.60;;
17365;SDS011;8800;50.118;9.900;2023-04-24T10:03:58;4.30;;;1.65;;
17365;SDS011;8800;50.118;9.900;2023-04-24T10:06:29;3.35;;;1.48;;
17365;SDS011;8800;50.118;9.900;2023-04-24T10:08:56;1.88;;;1.33;;
17365;SDS011;8800;50.118;9.900;2023-04-24T10:11:23;2.10;;;1.58;;
17365;SDS011;8800;50.118;9.900;2023-04-24T10:13:50;4.72;;;1.75;;
17365;SDS011;8800;50.118;9.900;2023-04-24T10:16:18;4.25;;;1.50;;
17365;SDS011;8800;50.118;9.900;2023-04-24T10:18:45;4.07;;;1.63;;
17365;SDS011;8800;50.118;9.900;2023-04-24T10:21:11;5.50;;;1.70;;
17365;SDS011;8800;50.118;9.900;2023-04-24T10:23:38;3.33;;;1.77;;
17365;SDS011;8800;50.118;9.900;2023-04-24T10:26:05;4.25;;;1.92;;
17365;SDS011;8800;50.118;9.900;2023-04-24T10:28:32;3.03;;;1.85;;
17365;SDS011;8800;50.118;9.900;2023-04-24T10:30:59;1.80;;;1.33;;
17365;SDS011;8800;50.118;9.900;2023-04-24T10:33:27;3.13;;;2.00;;
17365;SDS011;8800;50.118;9.900;2023-04-24T10:35:55;3.20;;;1.70;;
17365;SDS011;8800;50.118;9.900;2023-04-24T10:38:24;3.15;;;1.48;;
17365;SDS011;8800;50.118;9.900;2023-04-24T10:40:51;1.80;;;1.63;;
17365;SDS011;8800;50.118;9.900;2023-04-24T10:43:23;3.00;;;1.58;;
17365;SDS011;8800;50.118;9.900;2023-04-24T10:46:02;2.15;;;1.60;;
17365;SDS011;8800;50.118;9.900;2023-04-24T10:48:30;2.13;;;1.60;;
17365;SDS011;8800;50.118;9.900;2023-04-24T10:50:57;4.22;;;1.60;;
17365;SDS011;8800;50.118;9.900;2023-04-24T10:53:24;3.35;;;1.52;;
17365;SDS011;8800;50.118;9.900;2023-04-24T10:55:52;3.75;;;1.55;;
17365;SDS011;8800;50.118;9.900;2023-04-24T10:58:23;3.83;;;1.42;;
17365;SDS011;8800;50.118;9.900;2023-04-24T11:00:55;2.90;;;1.70;;
17365;SDS011;8800;50.118;9.900;2023-04-24T11:03:22;1.80;;;1.38;;
17365;SDS011;8800;50.118;9.900;2023-04-24T11:05:52;3.55;;;1.80;;
17365;SDS011;8800;50.118;9.900;2023-04-24T11:08:22;3.33;;;1.58;;
17365;SDS011;8800;50.118;9.900;2023-04-24T11:10:54;3.58;;;1.50;;
17365;SDS011;8800;50.118;9.900;2023-04-24T11:13:23;4.03;;;1.50;;
17365;SDS011;8800;50.118;9.900;2023-04-24T11:18:36;3.08;;;1.90;;
17365;SDS011;8800;50.118;9.900;2023-04-24T11:21:10;2.42;;;1.60;;
17365;SDS011;8800;50.118;9.900;2023-04-24T11:23:37;3.00;;;1.65;;
17365;SDS011;8800;50.118;9.900;2023-04-24T11:26:10;2.35;;;1.45;;
17365;SDS011;8800;50.118;9.900;2023-04-24T11:28:36;1.98;;;1.40;;
17365;SDS011;8800;50.118;9.900;2023-04-24T11:33:44;2.50;;;1.20;;
17365;SDS011;8800;50.118;9.900;2023-04-24T11:36:12;2.10;;;1.48;;
17365;SDS011;8800;50.118;9.900;2023-04-24T11:38:38;1.95;;;1.35;;
17365;SDS011;8800;50.118;9.900;2023-04-24T11:41:05;2.50;;;1.40;;
17365;SDS011;8800;50.118;9.900;2023-04-24T11:43:32;1.90;;;1.15;;
17365;SDS011;8800;50.118;9.900;2023-04-24T11:45:59;1.65;;;1.00;;
17365;SDS011;8800;50.118;9.900;2023-04-24T11:48:26;2.45;;;1.42;;
17365;SDS011;8800;50.118;9.900;2023-04-24T11:50:52;1.75;;;1.00;;
17365;SDS011;8800;50.118;9.900;2023-04-24T11:53:20;1.40;;;1.00;;
17365;SDS011;8800;50.118;9.900;2023-04-24T11:55:47;0.95;;;0.80;;
17365;SDS011;8800;50.118;9.900;2023-04-24T11:58:13;1.50;;;1.00;;
17365;SDS011;8800;50.118;9.900;2023-04-24T12:00:40;1.05;;;0.90;;
17365;SDS011;8800;50.118;9.900;2023-04-24T12:03:07;1.30;;;0.88;;
17365;SDS011;8800;50.118;9.900;2023-04-24T12:05:33;1.15;;;0.90;;
17365;SDS011;8800;50.118;9.900;2023-04-24T12:08:00;2.05;;;1.10;;
17365;SDS011;8800;50.118;9.900;2023-04-24T12:10:28;1.20;;;1.00;;
17365;SDS011;8800;50.118;9.900;2023-04-24T12:12:55;2.22;;;1.27;;
17365;SDS011;8800;50.118;9.900;2023-04-24T12:15:22;1.35;;;1.20;;
17365;SDS011;8800;50.118;9.900;2023-04-24T12:17:50;1.35;;;1.17;;
17365;SDS011;8800;50.118;9.900;2023-04-24T12:20:17;3.80;;;1.58;;
17365;SDS011;8800;50.118;9.900;2023-04-24T12:22:44;2.45;;;1.40;;
17365;SDS011;8800;50.118;9.900;2023-04-24T12:25:11;3.47;;;1.50;;
17365;SDS011;8800;50.118;9.900;2023-04-24T12:27:40;3.67;;;1.50;;
17365;SDS011;8800;50.118;9.900;2023-04-24T12:30:10;2.60;;;1.52;;
17365;SDS011;8800;50.118;9.900;2023-04-24T12:32:40;1.17;;;1.08;;
17365;SDS011;8800;50.118;9.900;2023-04-24T12:35:07;1.52;;;1.10;;
17365;SDS011;8800;50.118;9.900;2023-04-24T12:37:33;1.20;;;0.90;;
17365;SDS011;8800;50.118;9.900;2023-04-24T12:40:02;1.25;;;0.93;;
17365;SDS011;8800;50.118;9.900;2023-04-24T12:42:29;1.95;;;1.00;;
17365;SDS011;8800;50.118;9.900;2023-04-24T12:44:57;1.88;;;1.25;;
17365;SDS011;8800;50.118;9.900;2023-04-24T12:47:25;1.38;;;1.15;;
17365;SDS011;8800;50.118;9.900;2023-04-24T12:49:51;1.50;;;1.25;;
17365;SDS011;8800;50.118;9.900;2023-04-24T12:52:18;1.30;;;1.00;;
17365;SDS011;8800;50.118;9.900;2023-04-24T12:54:45;1.75;;;1.10;;
17365;SDS011;8800;50.118;9.900;2023-04-24T12:57:11;1.17;;;0.75;;
17365;SDS011;8800;50.118;9.900;2023-04-24T12:59:37;1.02;;;0.85;;
17365;SDS011;8800;50.118;9.900;2023-04-24T13:02:05;1.85;;;1.10;;
17365;SDS011;8800;50.118;9.900;2023-04-24T13:04:32;3.17;;;1.25;;
17365;SDS011;8800;50.118;9.900;2023-04-24T13:06:58;1.30;;;0.85;;
17365;SDS011;8800;50.118;9.900;2023-04-24T13:09:24;0.75;;;0.68;;
17365;SDS011;8800;50.118;9.900;2023-04-24T13:11:51;1.05;;;0.73;;
17365;SDS011;8800;50.118;9.900;2023-04-24T13:14:17;1.58;;;0.60;;
17365;SDS011;8800;50.118;9.900;2023-04-24T13:16:43;0.88;;;0.70;;
17365;SDS011;8800;50.118;9.900;2023-04-24T13:19:11;0.60;;;0.60;;
17365;SDS011;8800;50.118;9.900;2023-04-24T13:21:38;0.47;;;0.47;;
17365;SDS011;8800;50.118;9.900;2023-04-24T13:24:04;0.85;;;0.60;;
17365;SDS011;8800;50.118;9.900;2023-04-24T13:26:32;0.77;;;0.40;;
17365;SDS011;8800;50.118;9.900;2023-04-24T13:28:59;0.80;;;0.52;;
17365;SDS011;8800;50.118;9.900;2023-04-24T13:31:25;1.00;;;0.60;;
17365;SDS011;8800;50.118;9.900;2023-04-24T13:33:51;0.50;;;0.50;;
17365;SDS011;8800;50.118;9.900;2023-04-24T13:36:19;1.10;;;0.65;;
17365;SDS011;8800;50.118;9.900;2023-04-24T13:38:46;1.50;;;0.60;;
17365;SDS011;8800;50.118;9.900;2023-04-24T13:41:12;0.60;;;0.40;;
17365;SDS011;8800;50.118;9.900;2023-04-24T13:43:38;1.10;;;0.70;;
17365;SDS011;8800;50.118;9.900;2023-04-24T13:46:06;1.02;;;0.90;;
17365;SDS011;8800;50.118;9.900;2023-04-24T13:48:33;1.42;;;0.85;;
17365;SDS011;8800;50.118;9.900;2023-04-24T13:50:59;1.98;;;1.10;;
17365;SDS011;8800;50.118;9.900;2023-04-24T13:53:27;1.90;;;1.10;;
17365;SDS011;8800;50.118;9.900;2023-04-24T13:55:53;3.20;;;1.23;;
17365;SDS011;8800;50.118;9.900;2023-04-24T13:58:20;2.30;;;1.30;;
17365;SDS011;8800;50.118;9.900;2023-04-24T14:00:46;3.28;;;1.40;;
17365;SDS011;8800;50.118;9.900;2023-04-24T14:03:13;2.75;;;1.33;;
17365;SDS011;8800;50.118;9.900;2023-04-24T14:05:40;4.43;;;2.05;;
17365;SDS011;8800;50.118;9.900;2023-04-24T14:08:06;1.92;;;1.45;;
17365;SDS011;8800;50.118;9.900;2023-04-24T14:10:34;3.15;;;1.50;;
17365;SDS011;8800;50.118;9.900;2023-04-24T14:13:00;2.33;;;1.38;;
17365;SDS011;8800;50.118;9.900;2023-04-24T14:15:27;1.95;;;1.50;;
17365;SDS011;8800;50.118;9.900;2023-04-24T14:17:53;1.70;;;1.20;;
17365;SDS011;8800;50.118;9.900;2023-04-24T14:20:20;2.95;;;1.52;;
17365;SDS011;8800;50.118;9.900;2023-04-24T14:22:47;2.70;;;1.38;;
17365;SDS011;8800;50.118;9.900;2023-04-24T14:25:13;1.60;;;0.90;;
17365;SDS011;8800;50.118;9.900;2023-04-24T14:27:41;2.13;;;1.20;;
17365;SDS011;8800;50.118;9.900;2023-04-24T14:30:08;2.88;;;1.25;;
17365;SDS011;8800;50.118;9.900;2023-04-24T14:32:34;3.00;;;1.35;;
17365;SDS011;8800;50.118;9.900;2023-04-24T14:35:01;3.03;;;1.20;;
17365;SDS011;8800;50.118;9.900;2023-04-24T14:37:27;3.33;;;0.98;;
17365;SDS011;8800;50.118;9.900;2023-04-24T14:39:53;1.58;;;0.80;;
17365;SDS011;8800;50.118;9.900;2023-04-24T14:42:20;1.15;;;1.00;;
17365;SDS011;8800;50.118;9.900;2023-04-24T14:44:48;1.67;;;1.00;;
17365;SDS011;8800;50.118;9.900;2023-04-24T14:47:14;3.17;;;1.08;;
17365;SDS011;8800;50.118;9.900;2023-04-24T14:49:42;2.20;;;1.13;;
17365;SDS011;8800;50.118;9.900;2023-04-24T14:52:08;2.42;;;1.40;;
17365;SDS011;8800;50.118;9.900;2023-04-24T14:54:35;1.65;;;1.10;;
17365;SDS011;8800;50.118;9.900;2023-04-24T14:57:01;1.83;;;1.30;;
17365;SDS011;8800;50.118;9.900;2023-04-24T14:59:28;1.73;;;1.00;;
17365;SDS011;8800;50.118;9.900;2023-04-24T15:01:57;1.52;;;1.00;;
17365;SDS011;8800;50.118;9.900;2023-04-24T15:04:24;1.25;;;0.90;;